»·PEaware :: N751LU KWHP-KEKO

N751LU :: KWHP-KEKO

FLIGHT INFORMATION

Flight Status: Arrived
Operator: Privately registered:
United States
More flights under this callsign
Pilot: Ewen S. (18928)
Aircraft: CANADAIR CL-600 CHALLENGER
(CL60)
More flights by this aircraft type
Origin: KWHP Whiteman
United States
Destination: KEKO Elko Regl
United States
More flights between these airports :: More routes between these airports
Route: WHP1 VNY TWINE V518 PMD DAG WINEN ELY V293 BQU
File this flight plan on PilotEdge
Remarks:
Altitude:
(Current/Filed)
37,000ft
Speed:
(Current/Filed)
460kts
Departed: 05-Nov-23 12:40 PM
Arrived: 05-Nov-23 02:14 PM
Distance/Time
Traveled:
413nm/1:33
Distance/Time
To Go:
Arrived

Flight Plot

Page will automatically refresh every two minutes.

Flight plan parsing failed; only flown route is shown


Map Options




Map Legend


Flown Route
Filed Route
Departure Airport
Arrival Airport
Navaid (VOR, NDB)
Fix

Horizontal Profiles

Position Reports

Time Latitude Longitude Heading Altitude Ground
Speed
05-Nov-23 12:09 34.260941 -118.413037 138 1007ft 0kts
05-Nov-23 12:10 34.260941 -118.413037 138 1007ft 0kts
05-Nov-23 12:11 34.260941 -118.413037 138 1007ft 0kts
05-Nov-23 12:12 34.260941 -118.413037 138 1007ft 0kts
05-Nov-23 12:12 34.260941 -118.413037 138 1007ft 0kts
05-Nov-23 12:14 34.260942 -118.413037 138 1007ft 0kts
05-Nov-23 12:15 34.260942 -118.413037 138 1007ft 0kts
05-Nov-23 12:16 34.260942 -118.413037 138 1007ft 0kts
05-Nov-23 12:17 34.260942 -118.413037 138 1007ft 0kts
05-Nov-23 12:17 34.260942 -118.413037 138 1007ft 0kts
05-Nov-23 12:19 34.260942 -118.413037 138 1007ft 0kts
05-Nov-23 12:20 34.260942 -118.413037 138 1007ft 0kts
05-Nov-23 12:20 34.260942 -118.413037 138 1007ft 0kts
05-Nov-23 12:21 34.260942 -118.413037 138 1007ft 0kts
05-Nov-23 12:22 34.260942 -118.413037 138 1007ft 0kts
05-Nov-23 12:24 34.260942 -118.413037 138 1007ft 0kts
05-Nov-23 12:25 34.260942 -118.413037 138 1007ft 0kts
05-Nov-23 12:25 34.260942 -118.413037 138 1007ft 0kts
05-Nov-23 12:27 34.260942 -118.413037 138 1007ft 0kts
05-Nov-23 12:28 34.260942 -118.413037 138 1007ft 0kts
05-Nov-23 12:28 34.260942 -118.413037 138 1007ft 0kts
05-Nov-23 12:29 34.260942 -118.413037 138 1007ft 0kts
05-Nov-23 12:31 34.260942 -118.413037 138 1007ft 0kts
05-Nov-23 12:31 34.260942 -118.413037 138 1007ft 0kts
05-Nov-23 12:32 34.260942 -118.413037 138 1007ft 0kts
05-Nov-23 12:33 34.260942 -118.413037 138 1007ft 0kts
05-Nov-23 12:34 34.260828 -118.412917 138 1006ft 4kts
05-Nov-23 12:35 34.259746 -118.413200 153 998ft 13kts
05-Nov-23 12:36 34.256858 -118.410226 138 981ft 14kts
05-Nov-23 12:37 34.255609 -118.408932 157 970ft 0kts
05-Nov-23 12:38 34.255153 -118.408888 217 969ft 2kts
05-Nov-23 12:39 34.259668 -118.413894 318 998ft 116kts
05-Nov-23 12:40 34.278364 -118.455578 271 3156ft 175kts
05-Nov-23 12:41 34.283545 -118.514506 308 6761ft 189kts
05-Nov-23 12:42 34.304564 -118.559526 221 10051ft 197kts
05-Nov-23 12:43 34.251916 -118.570862 208 13102ft 208kts
05-Nov-23 12:44 34.256139 -118.630063 326 14316ft 295kts
05-Nov-23 12:45 34.331906 -118.591550 54 17177ft 347kts
05-Nov-23 12:46 34.387289 -118.494005 53 19820ft 362kts
05-Nov-23 12:47 34.445908 -118.391166 53 22170ft 378kts
05-Nov-23 12:48 34.506834 -118.284298 53 24325ft 391kts
05-Nov-23 12:49 34.569971 -118.173388 53 26299ft 406kts
05-Nov-23 12:50 34.632913 -118.056686 69 28115ft 419kts
05-Nov-23 12:51 34.665486 -117.917084 73 29695ft 431kts
05-Nov-23 12:52 34.698151 -117.774186 73 31116ft 441kts
05-Nov-23 12:53 34.731241 -117.628362 72 32358ft 450kts
05-Nov-23 12:54 34.764679 -117.479969 71 33448ft 457kts
05-Nov-23 12:55 34.798554 -117.328654 71 34465ft 461kts
05-Nov-23 12:56 34.832249 -117.177094 70 35437ft 461kts
05-Nov-23 12:57 34.865497 -117.026544 70 36305ft 460kts
05-Nov-23 12:58 34.898655 -116.875358 68 37173ft 456kts
05-Nov-23 12:59 34.931978 -116.722771 69 37158ft 472kts
05-Nov-23 13:00 34.982294 -116.574835 47 37143ft 469kts
05-Nov-23 13:01 35.076246 -116.466187 31 37082ft 465kts
05-Nov-23 13:02 35.178613 -116.365170 31 37086ft 471kts
05-Nov-23 13:03 35.281578 -116.263042 32 37080ft 471kts
05-Nov-23 13:04 35.383664 -116.161373 32 37074ft 471kts
05-Nov-23 13:05 35.486014 -116.059069 32 37034ft 472kts
05-Nov-23 13:06 35.588425 -115.956335 32 37036ft 474kts
05-Nov-23 13:07 35.691482 -115.852589 32 37045ft 476kts
05-Nov-23 13:08 35.794818 -115.748185 32 37013ft 477kts
05-Nov-23 13:09 35.897520 -115.644047 32 36998ft 476kts
05-Nov-23 13:10 36.000575 -115.539201 32 37030ft 478kts
05-Nov-23 13:11 36.104107 -115.433494 32 37029ft 481kts
05-Nov-23 13:12 36.207491 -115.327547 32 36954ft 480kts
05-Nov-23 13:13 36.310969 -115.221122 33 36988ft 480kts
05-Nov-23 13:14 36.414545 -115.114235 32 37022ft 483kts
05-Nov-23 13:15 36.518347 -115.006710 32 37019ft 483kts
05-Nov-23 13:16 36.622437 -114.898500 32 36977ft 484kts
05-Nov-23 13:17 36.725848 -114.790605 32 36978ft 484kts
05-Nov-23 13:18 36.829547 -114.682018 32 36977ft 486kts
05-Nov-23 13:19 36.933785 -114.572459 32 36975ft 487kts
05-Nov-23 13:20 37.038029 -114.462479 32 36963ft 487kts
05-Nov-23 13:21 37.142277 -114.352080 32 37007ft 487kts
05-Nov-23 13:22 37.246543 -114.241252 32 37025ft 487kts
05-Nov-23 13:23 37.350258 -114.130607 32 37051ft 489kts
05-Nov-23 13:24 37.454882 -114.018550 32 37051ft 489kts
05-Nov-23 13:25 37.558902 -113.906729 32 37046ft 490kts
05-Nov-23 13:26 37.663196 -113.794180 32 37001ft 491kts
05-Nov-23 13:27 37.767536 -113.681140 32 36996ft 492kts
05-Nov-23 13:28 37.880847 -113.593574 5 37005ft 458kts
05-Nov-23 13:29 38.001876 -113.592759 335 37050ft 417kts
05-Nov-23 13:30 38.100267 -113.661349 315 36989ft 396kts
05-Nov-23 13:31 38.188226 -113.746777 315 36989ft 395kts
05-Nov-23 13:32 38.275730 -113.832022 315 36997ft 394kts
05-Nov-23 13:33 38.363419 -113.917730 315 37017ft 396kts
05-Nov-23 13:34 38.451246 -114.003826 314 37043ft 395kts
05-Nov-23 13:35 38.539064 -114.090197 314 37052ft 396kts
05-Nov-23 13:36 38.626471 -114.176433 314 37055ft 397kts
05-Nov-23 13:37 38.714224 -114.263271 314 37042ft 396kts
05-Nov-23 13:38 38.801860 -114.350269 314 36998ft 394kts
05-Nov-23 13:39 38.888688 -114.436752 314 36998ft 394kts
05-Nov-23 13:40 38.975656 -114.523662 313 37007ft 394kts
05-Nov-23 13:41 39.062466 -114.610671 313 36979ft 393kts
05-Nov-23 13:42 39.149438 -114.698124 313 36981ft 393kts
05-Nov-23 13:43 39.235817 -114.785271 313 36978ft 393kts
05-Nov-23 13:44 39.325310 -114.865009 324 36097ft 396kts
05-Nov-23 13:45 39.423837 -114.925006 323 34358ft 379kts
05-Nov-23 13:46 39.518265 -114.982866 323 32479ft 370kts
05-Nov-23 13:47 39.610731 -115.039727 323 30517ft 362kts
05-Nov-23 13:48 39.701107 -115.095441 323 28571ft 354kts
05-Nov-23 13:49 39.789994 -115.150326 323 26568ft 349kts
05-Nov-23 13:50 39.877357 -115.204434 323 24564ft 345kts
05-Nov-23 13:51 39.963796 -115.258092 323 22566ft 338kts
05-Nov-23 13:52 40.048240 -115.310664 324 20523ft 331kts
05-Nov-23 13:53 40.130849 -115.362239 324 18477ft 325kts
05-Nov-23 13:54 40.212406 -115.413304 325 16394ft 322kts
05-Nov-23 13:55 40.293115 -115.464547 326 14464ft 314kts
05-Nov-23 13:56 40.369022 -115.512419 326 14358ft 303kts
05-Nov-23 13:57 40.445382 -115.560774 325 14337ft 298kts
05-Nov-23 13:58 40.520696 -115.608855 325 14339ft 299kts
05-Nov-23 13:59 40.596359 -115.656967 324 14360ft 301kts
05-Nov-23 14:00 40.669477 -115.703408 324 14339ft 278kts
05-Nov-23 14:01 40.741020 -115.743323 345 14333ft 291kts
05-Nov-23 14:02 40.812982 -115.684181 43 14334ft 330kts
05-Nov-23 14:03 40.865157 -115.582971 52 14159ft 338kts
05-Nov-23 14:04 40.945322 -115.562410 2 12290ft 315kts
05-Nov-23 14:05 40.985482 -115.473797 119 10431ft 290kts
05-Nov-23 14:06 40.928656 -115.447739 195 9692ft 206kts
05-Nov-23 14:07 40.886272 -115.483861 255 9676ft 183kts
05-Nov-23 14:08 40.873814 -115.550639 253 8843ft 184kts
05-Nov-23 14:09 40.860647 -115.615646 253 8097ft 173kts
05-Nov-23 14:10 40.848128 -115.676067 254 7250ft 149kts
05-Nov-23 14:11 40.837523 -115.728100 254 6398ft 144kts
05-Nov-23 14:12 40.826830 -115.779299 248 5205ft 142kts
05-Nov-23 14:13 40.819464 -115.805220 314 5092ft 9kts
05-Nov-23 14:14 40.820992 -115.803177 68 5092ft 13kts
05-Nov-23 14:15 40.822512 -115.798057 68 5092ft 17kts
05-Nov-23 14:16 40.824816 -115.790365 68 5092ft 26kts
05-Nov-23 14:17 40.827634 -115.780847 68 5092ft 0kts

Navigation Log

Ident Type
Flight plan parsing failed, navigation log unavailable